sensor_id;sensor_type;location;lat;lon;timestamp;P1;durP1;ratioP1;P2;durP2;ratioP2
43552;SDS011;29153;42.696;23.218;2022-11-15T00:01:14;30.60;;;14.28;;
43552;SDS011;29153;42.696;23.218;2022-11-15T00:03:37;33.95;;;13.22;;
43552;SDS011;29153;42.696;23.218;2022-11-15T00:06:05;33.88;;;13.40;;
43552;SDS011;29153;42.696;23.218;2022-11-15T00:08:33;32.08;;;14.03;;
43552;SDS011;29153;42.696;23.218;2022-11-15T00:11:01;33.10;;;15.28;;
43552;SDS011;29153;42.696;23.218;2022-11-15T00:15:57;29.57;;;13.03;;
43552;SDS011;29153;42.696;23.218;2022-11-15T00:18:25;31.90;;;14.05;;
43552;SDS011;29153;42.696;23.218;2022-11-15T00:20:54;32.93;;;13.65;;
43552;SDS011;29153;42.696;23.218;2022-11-15T00:23:22;37.53;;;13.83;;
43552;SDS011;29153;42.696;23.218;2022-11-15T00:25:56;34.55;;;14.45;;
43552;SDS011;29153;42.696;23.218;2022-11-15T00:28:25;31.50;;;14.28;;
43552;SDS011;29153;42.696;23.218;2022-11-15T00:30:52;37.65;;;15.72;;
43552;SDS011;29153;42.696;23.218;2022-11-15T00:33:20;34.38;;;14.07;;
43552;SDS011;29153;42.696;23.218;2022-11-15T00:35:48;33.10;;;14.63;;
43552;SDS011;29153;42.696;23.218;2022-11-15T00:38:15;34.67;;;14.55;;
43552;SDS011;29153;42.696;23.218;2022-11-15T00:40:43;32.20;;;13.83;;
43552;SDS011;29153;42.696;23.218;2022-11-15T00:43:10;35.00;;;14.28;;
43552;SDS011;29153;42.696;23.218;2022-11-15T00:45:38;33.45;;;13.60;;
43552;SDS011;29153;42.696;23.218;2022-11-15T00:48:05;32.67;;;15.10;;
43552;SDS011;29153;42.696;23.218;2022-11-15T00:50:33;36.38;;;15.55;;
43552;SDS011;29153;42.696;23.218;2022-11-15T00:53:01;37.93;;;14.70;;
43552;SDS011;29153;42.696;23.218;2022-11-15T00:55:28;36.48;;;14.30;;
43552;SDS011;29153;42.696;23.218;2022-11-15T00:57:56;33.73;;;13.95;;
43552;SDS011;29153;42.696;23.218;2022-11-15T01:00:23;28.65;;;12.65;;
43552;SDS011;29153;42.696;23.218;2022-11-15T01:02:51;38.23;;;13.20;;
43552;SDS011;29153;42.696;23.218;2022-11-15T01:05:19;35.80;;;15.20;;
43552;SDS011;29153;42.696;23.218;2022-11-15T01:07:47;33.23;;;14.33;;
43552;SDS011;29153;42.696;23.218;2022-11-15T01:10:16;32.83;;;14.65;;
43552;SDS011;29153;42.696;23.218;2022-11-15T01:12:43;32.03;;;13.25;;
43552;SDS011;29153;42.696;23.218;2022-11-15T01:15:11;32.88;;;13.80;;
43552;SDS011;29153;42.696;23.218;2022-11-15T01:17:38;34.33;;;13.85;;
43552;SDS011;29153;42.696;23.218;2022-11-15T01:20:06;34.13;;;13.85;;
43552;SDS011;29153;42.696;23.218;2022-11-15T01:22:34;31.48;;;13.43;;
43552;SDS011;29153;42.696;23.218;2022-11-15T01:25:02;31.17;;;13.58;;
43552;SDS011;29153;42.696;23.218;2022-11-15T01:27:30;33.90;;;15.35;;
43552;SDS011;29153;42.696;23.218;2022-11-15T01:29:57;30.75;;;13.13;;
43552;SDS011;29153;42.696;23.218;2022-11-15T01:32:25;30.50;;;13.18;;
43552;SDS011;29153;42.696;23.218;2022-11-15T01:34:52;30.35;;;12.60;;
43552;SDS011;29153;42.696;23.218;2022-11-15T01:37:20;30.23;;;13.18;;
43552;SDS011;29153;42.696;23.218;2022-11-15T01:39:47;30.85;;;11.75;;
43552;SDS011;29153;42.696;23.218;2022-11-15T01:42:15;26.73;;;11.95;;
43552;SDS011;29153;42.696;23.218;2022-11-15T01:44:48;29.27;;;12.60;;
43552;SDS011;29153;42.696;23.218;2022-11-15T01:47:22;25.55;;;11.80;;
43552;SDS011;29153;42.696;23.218;2022-11-15T01:50:08;28.15;;;11.88;;
43552;SDS011;29153;42.696;23.218;2022-11-15T01:52:36;26.48;;;12.20;;
43552;SDS011;29153;42.696;23.218;2022-11-15T01:55:22;30.20;;;13.50;;
43552;SDS011;29153;42.696;23.218;2022-11-15T01:57:53;30.92;;;12.15;;
43552;SDS011;29153;42.696;23.218;2022-11-15T02:00:22;29.45;;;13.22;;
43552;SDS011;29153;42.696;23.218;2022-11-15T02:02:50;33.20;;;12.73;;
43552;SDS011;29153;42.696;23.218;2022-11-15T02:05:17;28.62;;;12.03;;
43552;SDS011;29153;42.696;23.218;2022-11-15T02:07:45;25.65;;;11.00;;
43552;SDS011;29153;42.696;23.218;2022-11-15T02:12:42;24.70;;;10.68;;
43552;SDS011;29153;42.696;23.218;2022-11-15T02:15:10;28.52;;;12.65;;
43552;SDS011;29153;42.696;23.218;2022-11-15T02:28:51;22.50;;;10.25;;
43552;SDS011;29153;42.696;23.218;2022-11-15T02:34:25;27.87;;;11.22;;
43552;SDS011;29153;42.696;23.218;2022-11-15T02:42:39;23.95;;;10.65;;
43552;SDS011;29153;42.696;23.218;2022-11-15T02:45:33;27.42;;;12.23;;
43552;SDS011;29153;42.696;23.218;2022-11-15T02:48:05;27.20;;;11.70;;
43552;SDS011;29153;42.696;23.218;2022-11-15T02:50:35;26.35;;;11.50;;
43552;SDS011;29153;42.696;23.218;2022-11-15T02:53:03;24.05;;;10.53;;
43552;SDS011;29153;42.696;23.218;2022-11-15T02:55:34;25.23;;;10.35;;
43552;SDS011;29153;42.696;23.218;2022-11-15T03:00:40;26.33;;;10.78;;
43552;SDS011;29153;42.696;23.218;2022-11-15T03:03:21;26.42;;;9.53;;
43552;SDS011;29153;42.696;23.218;2022-11-15T03:06:05;23.07;;;10.93;;
43552;SDS011;29153;42.696;23.218;2022-11-15T03:11:15;26.60;;;9.88;;
43552;SDS011;29153;42.696;23.218;2022-11-15T03:16:45;24.47;;;10.38;;
43552;SDS011;29153;42.696;23.218;2022-11-15T03:22:08;24.40;;;10.72;;
43552;SDS011;29153;42.696;23.218;2022-11-15T03:24:38;24.43;;;10.18;;
43552;SDS011;29153;42.696;23.218;2022-11-15T03:27:07;28.35;;;11.08;;
43552;SDS011;29153;42.696;23.218;2022-11-15T03:29:43;26.77;;;11.50;;
43552;SDS011;29153;42.696;23.218;2022-11-15T03:32:17;28.77;;;11.68;;
43552;SDS011;29153;42.696;23.218;2022-11-15T03:37:15;29.48;;;13.43;;
43552;SDS011;29153;42.696;23.218;2022-11-15T03:39:45;23.10;;;10.88;;
43552;SDS011;29153;42.696;23.218;2022-11-15T03:44:47;32.80;;;12.45;;
43552;SDS011;29153;42.696;23.218;2022-11-15T03:47:18;31.75;;;11.53;;
43552;SDS011;29153;42.696;23.218;2022-11-15T03:49:50;27.75;;;11.12;;
43552;SDS011;29153;42.696;23.218;2022-11-15T03:52:20;28.32;;;12.10;;
43552;SDS011;29153;42.696;23.218;2022-11-15T03:54:55;27.80;;;11.83;;
43552;SDS011;29153;42.696;23.218;2022-11-15T03:57:23;29.70;;;12.30;;
43552;SDS011;29153;42.696;23.218;2022-11-15T03:59:51;27.22;;;11.28;;
43552;SDS011;29153;42.696;23.218;2022-11-15T04:02:18;27.62;;;12.43;;
43552;SDS011;29153;42.696;23.218;2022-11-15T04:04:46;26.52;;;12.03;;
43552;SDS011;29153;42.696;23.218;2022-11-15T04:07:13;25.70;;;11.57;;
43552;SDS011;29153;42.696;23.218;2022-11-15T04:09:41;28.12;;;12.13;;
43552;SDS011;29153;42.696;23.218;2022-11-15T04:12:27;25.30;;;10.65;;
43552;SDS011;29153;42.696;23.218;2022-11-15T04:15:02;27.35;;;11.22;;
43552;SDS011;29153;42.696;23.218;2022-11-15T04:17:42;23.65;;;10.95;;
43552;SDS011;29153;42.696;23.218;2022-11-15T04:20:20;25.95;;;11.78;;
43552;SDS011;29153;42.696;23.218;2022-11-15T04:23:08;24.75;;;10.05;;
43552;SDS011;29153;42.696;23.218;2022-11-15T04:25:52;27.95;;;12.15;;
43552;SDS011;29153;42.696;23.218;2022-11-15T04:28:21;27.98;;;12.90;;
43552;SDS011;29153;42.696;23.218;2022-11-15T04:30:49;39.40;;;14.43;;
43552;SDS011;29153;42.696;23.218;2022-11-15T04:33:17;31.62;;;14.03;;
43552;SDS011;29153;42.696;23.218;2022-11-15T04:35:44;31.37;;;12.85;;
43552;SDS011;29153;42.696;23.218;2022-11-15T04:38:13;28.98;;;13.80;;
43552;SDS011;29153;42.696;23.218;2022-11-15T04:40:41;33.95;;;15.72;;
43552;SDS011;29153;42.696;23.218;2022-11-15T04:43:08;32.67;;;15.35;;
43552;SDS011;29153;42.696;23.218;2022-11-15T04:45:36;35.13;;;14.75;;
43552;SDS011;29153;42.696;23.218;2022-11-15T04:48:04;37.73;;;13.58;;
43552;SDS011;29153;42.696;23.218;2022-11-15T04:50:31;40.60;;;13.80;;
43552;SDS011;29153;42.696;23.218;2022-11-15T04:52:59;37.60;;;13.10;;
43552;SDS011;29153;42.696;23.218;2022-11-15T04:55:26;33.95;;;13.20;;
43552;SDS011;29153;42.696;23.218;2022-11-15T04:57:58;39.73;;;13.05;;
43552;SDS011;29153;42.696;23.218;2022-11-15T05:00:26;42.62;;;13.58;;
43552;SDS011;29153;42.696;23.218;2022-11-15T05:05:40;38.70;;;13.13;;
43552;SDS011;29153;42.696;23.218;2022-11-15T05:08:08;45.15;;;14.33;;
43552;SDS011;29153;42.696;23.218;2022-11-15T05:10:35;53.00;;;14.25;;
43552;SDS011;29153;42.696;23.218;2022-11-15T05:13:03;51.10;;;14.50;;
43552;SDS011;29153;42.696;23.218;2022-11-15T05:15:31;49.93;;;15.75;;
43552;SDS011;29153;42.696;23.218;2022-11-15T05:17:58;56.92;;;15.95;;
43552;SDS011;29153;42.696;23.218;2022-11-15T05:20:26;58.87;;;15.60;;
43552;SDS011;29153;42.696;23.218;2022-11-15T05:22:54;73.92;;;17.67;;
43552;SDS011;29153;42.696;23.218;2022-11-15T05:25:22;56.90;;;15.18;;
43552;SDS011;29153;42.696;23.218;2022-11-15T05:27:50;63.65;;;16.15;;
43552;SDS011;29153;42.696;23.218;2022-11-15T05:30:18;62.40;;;16.37;;
43552;SDS011;29153;42.696;23.218;2022-11-15T05:32:45;82.47;;;17.20;;
43552;SDS011;29153;42.696;23.218;2022-11-15T05:35:38;64.53;;;16.80;;
43552;SDS011;29153;42.696;23.218;2022-11-15T05:37:47;71.60;;;17.35;;
43552;SDS011;29153;42.696;23.218;2022-11-15T05:40:15;77.97;;;17.30;;
43552;SDS011;29153;42.696;23.218;2022-11-15T05:42:43;105.52;;;18.60;;
43552;SDS011;29153;42.696;23.218;2022-11-15T05:45:12;71.65;;;18.12;;
43552;SDS011;29153;42.696;23.218;2022-11-15T05:47:39;75.22;;;16.82;;
43552;SDS011;29153;42.696;23.218;2022-11-15T05:50:09;91.30;;;18.87;;
43552;SDS011;29153;42.696;23.218;2022-11-15T05:52:41;95.47;;;18.92;;
43552;SDS011;29153;42.696;23.218;2022-11-15T05:55:10;83.30;;;18.48;;
43552;SDS011;29153;42.696;23.218;2022-11-15T05:57:38;89.72;;;20.20;;
43552;SDS011;29153;42.696;23.218;2022-11-15T06:00:06;110.20;;;23.50;;
43552;SDS011;29153;42.696;23.218;2022-11-15T06:02:34;105.32;;;25.80;;
43552;SDS011;29153;42.696;23.218;2022-11-15T06:05:02;104.12;;;25.55;;
43552;SDS011;29153;42.696;23.218;2022-11-15T06:07:30;110.32;;;20.90;;
43552;SDS011;29153;42.696;23.218;2022-11-15T06:09:57;80.05;;;21.93;;
43552;SDS011;29153;42.696;23.218;2022-11-15T06:12:25;109.85;;;23.22;;
43552;SDS011;29153;42.696;23.218;2022-11-15T06:14:52;91.30;;;21.85;;
43552;SDS011;29153;42.696;23.218;2022-11-15T06:17:20;103.55;;;24.05;;
43552;SDS011;29153;42.696;23.218;2022-11-15T06:19:47;95.85;;;22.17;;
43552;SDS011;29153;42.696;23.218;2022-11-15T06:22:15;77.03;;;21.62;;
43552;SDS011;29153;42.696;23.218;2022-11-15T06:24:42;90.35;;;21.12;;
43552;SDS011;29153;42.696;23.218;2022-11-15T06:27:11;134.35;;;30.62;;
43552;SDS011;29153;42.696;23.218;2022-11-15T06:29:38;97.57;;;21.05;;
43552;SDS011;29153;42.696;23.218;2022-11-15T06:32:06;79.77;;;20.43;;
43552;SDS011;29153;42.696;23.218;2022-11-15T06:34:33;95.97;;;25.55;;
43552;SDS011;29153;42.696;23.218;2022-11-15T06:37:02;98.12;;;27.40;;
43552;SDS011;29153;42.696;23.218;2022-11-15T06:39:29;114.08;;;25.05;;
43552;SDS011;29153;42.696;23.218;2022-11-15T06:41:57;106.17;;;22.58;;
43552;SDS011;29153;42.696;23.218;2022-11-15T06:44:25;99.83;;;24.87;;
43552;SDS011;29153;42.696;23.218;2022-11-15T06:46:52;92.72;;;25.68;;
43552;SDS011;29153;42.696;23.218;2022-11-15T06:49:20;121.67;;;24.23;;
43552;SDS011;29153;42.696;23.218;2022-11-15T06:51:47;114.17;;;27.67;;
43552;SDS011;29153;42.696;23.218;2022-11-15T06:54:15;109.17;;;23.55;;
43552;SDS011;29153;42.696;23.218;2022-11-15T06:56:43;96.75;;;21.50;;
43552;SDS011;29153;42.696;23.218;2022-11-15T06:59:10;71.02;;;19.90;;
43552;SDS011;29153;42.696;23.218;2022-11-15T07:01:38;77.15;;;19.23;;
43552;SDS011;29153;42.696;23.218;2022-11-15T07:04:05;83.50;;;21.80;;
43552;SDS011;29153;42.696;23.218;2022-11-15T07:06:33;71.33;;;18.50;;
43552;SDS011;29153;42.696;23.218;2022-11-15T07:09:02;61.58;;;18.02;;
43552;SDS011;29153;42.696;23.218;2022-11-15T07:11:29;70.22;;;18.30;;
43552;SDS011;29153;42.696;23.218;2022-11-15T07:13:57;80.47;;;20.95;;
43552;SDS011;29153;42.696;23.218;2022-11-15T07:16:25;64.55;;;20.10;;
43552;SDS011;29153;42.696;23.218;2022-11-15T07:18:53;71.50;;;22.52;;
43552;SDS011;29153;42.696;23.218;2022-11-15T07:21:21;86.08;;;29.02;;
43552;SDS011;29153;42.696;23.218;2022-11-15T07:23:48;64.42;;;19.42;;
43552;SDS011;29153;42.696;23.218;2022-11-15T07:26:16;71.85;;;20.60;;
43552;SDS011;29153;42.696;23.218;2022-11-15T07:28:43;71.65;;;19.17;;
43552;SDS011;29153;42.696;23.218;2022-11-15T07:31:11;70.35;;;19.80;;
43552;SDS011;29153;42.696;23.218;2022-11-15T07:33:38;62.62;;;20.27;;
43552;SDS011;29153;42.696;23.218;2022-11-15T07:36:06;68.75;;;18.05;;
43552;SDS011;29153;42.696;23.218;2022-11-15T07:38:35;51.02;;;18.57;;
43552;SDS011;29153;42.696;23.218;2022-11-15T07:41:03;63.05;;;18.57;;
43552;SDS011;29153;42.696;23.218;2022-11-15T07:43:32;59.38;;;17.10;;
43552;SDS011;29153;42.696;23.218;2022-11-15T07:46:04;61.83;;;17.73;;
43552;SDS011;29153;42.696;23.218;2022-11-15T07:48:30;60.28;;;18.92;;
43552;SDS011;29153;42.696;23.218;2022-11-15T07:50:58;60.05;;;19.23;;
43552;SDS011;29153;42.696;23.218;2022-11-15T07:53:25;67.05;;;21.35;;
43552;SDS011;29153;42.696;23.218;2022-11-15T07:55:53;66.53;;;21.35;;
43552;SDS011;29153;42.696;23.218;2022-11-15T07:58:21;54.23;;;18.32;;
43552;SDS011;29153;42.696;23.218;2022-11-15T08:00:48;57.33;;;20.05;;
43552;SDS011;29153;42.696;23.218;2022-11-15T08:03:16;53.28;;;17.37;;
43552;SDS011;29153;42.696;23.218;2022-11-15T08:05:49;53.42;;;18.77;;
43552;SDS011;29153;42.696;23.218;2022-11-15T08:08:14;57.40;;;18.87;;
43552;SDS011;29153;42.696;23.218;2022-11-15T08:10:42;64.65;;;20.00;;
43552;SDS011;29153;42.696;23.218;2022-11-15T08:13:10;53.58;;;18.98;;
43552;SDS011;29153;42.696;23.218;2022-11-15T08:15:38;50.88;;;18.30;;
43552;SDS011;29153;42.696;23.218;2022-11-15T08:18:09;54.60;;;18.73;;
43552;SDS011;29153;42.696;23.218;2022-11-15T08:20:37;57.43;;;16.27;;
43552;SDS011;29153;42.696;23.218;2022-11-15T08:23:05;53.38;;;18.02;;
43552;SDS011;29153;42.696;23.218;2022-11-15T08:25:34;47.93;;;16.42;;
43552;SDS011;29153;42.696;23.218;2022-11-15T08:28:03;73.47;;;22.85;;
43552;SDS011;29153;42.696;23.218;2022-11-15T08:30:36;59.80;;;17.02;;
43552;SDS011;29153;42.696;23.218;2022-11-15T08:33:09;49.75;;;19.02;;
43552;SDS011;29153;42.696;23.218;2022-11-15T08:35:40;64.80;;;17.77;;
43552;SDS011;29153;42.696;23.218;2022-11-15T08:38:09;44.48;;;17.73;;
43552;SDS011;29153;42.696;23.218;2022-11-15T08:40:37;57.80;;;17.95;;
43552;SDS011;29153;42.696;23.218;2022-11-15T08:43:04;50.00;;;18.62;;
43552;SDS011;29153;42.696;23.218;2022-11-15T08:45:33;50.03;;;17.98;;
43552;SDS011;29153;42.696;23.218;2022-11-15T08:48:02;53.30;;;19.35;;
43552;SDS011;29153;42.696;23.218;2022-11-15T08:50:29;51.95;;;18.27;;
43552;SDS011;29153;42.696;23.218;2022-11-15T08:52:57;56.65;;;19.45;;
43552;SDS011;29153;42.696;23.218;2022-11-15T08:55:37;54.67;;;20.25;;
43552;SDS011;29153;42.696;23.218;2022-11-15T08:58:06;50.65;;;19.30;;
43552;SDS011;29153;42.696;23.218;2022-11-15T09:00:34;55.00;;;18.55;;
43552;SDS011;29153;42.696;23.218;2022-11-15T09:03:04;57.00;;;21.35;;
43552;SDS011;29153;42.696;23.218;2022-11-15T09:05:37;50.70;;;21.02;;
43552;SDS011;29153;42.696;23.218;2022-11-15T09:08:05;60.12;;;21.87;;
43552;SDS011;29153;42.696;23.218;2022-11-15T09:10:32;74.50;;;24.57;;
43552;SDS011;29153;42.696;23.218;2022-11-15T09:13:00;69.22;;;23.02;;
43552;SDS011;29153;42.696;23.218;2022-11-15T09:15:27;66.75;;;23.67;;
43552;SDS011;29153;42.696;23.218;2022-11-15T09:17:57;68.83;;;23.52;;
43552;SDS011;29153;42.696;23.218;2022-11-15T09:20:27;73.78;;;25.23;;
43552;SDS011;29153;42.696;23.218;2022-11-15T09:22:54;65.87;;;23.85;;
43552;SDS011;29153;42.696;23.218;2022-11-15T09:25:23;68.17;;;26.37;;
43552;SDS011;29153;42.696;23.218;2022-11-15T09:27:51;71.35;;;25.00;;
43552;SDS011;29153;42.696;23.218;2022-11-15T09:30:18;69.92;;;25.52;;
43552;SDS011;29153;42.696;23.218;2022-11-15T09:32:46;74.22;;;25.10;;
43552;SDS011;29153;42.696;23.218;2022-11-15T09:35:13;80.90;;;29.72;;
43552;SDS011;29153;42.696;23.218;2022-11-15T09:37:41;82.85;;;26.75;;
43552;SDS011;29153;42.696;23.218;2022-11-15T09:40:10;83.87;;;27.42;;
43552;SDS011;29153;42.696;23.218;2022-11-15T09:51:08;89.77;;;28.57;;
43552;SDS011;29153;42.696;23.218;2022-11-15T09:56:29;101.82;;;34.88;;
43552;SDS011;29153;42.696;23.218;2022-11-15T10:01:53;113.62;;;35.75;;
43552;SDS011;29153;42.696;23.218;2022-11-15T10:04:38;111.77;;;35.70;;
43552;SDS011;29153;42.696;23.218;2022-11-15T10:07:09;120.45;;;39.38;;
43552;SDS011;29153;42.696;23.218;2022-11-15T10:09:52;139.62;;;44.83;;
43552;SDS011;29153;42.696;23.218;2022-11-15T10:12:22;137.60;;;42.38;;
43552;SDS011;29153;42.696;23.218;2022-11-15T10:15:01;139.37;;;41.00;;
43552;SDS011;29153;42.696;23.218;2022-11-15T10:22:50;117.20;;;40.52;;
43552;SDS011;29153;42.696;23.218;2022-11-15T10:25:33;116.75;;;41.53;;
43552;SDS011;29153;42.696;23.218;2022-11-15T10:28:06;121.65;;;40.78;;
43552;SDS011;29153;42.696;23.218;2022-11-15T10:30:36;123.38;;;39.48;;
43552;SDS011;29153;42.696;23.218;2022-11-15T10:41:40;119.60;;;37.93;;
43552;SDS011;29153;42.696;23.218;2022-11-15T10:46:46;119.28;;;42.67;;
43552;SDS011;29153;42.696;23.218;2022-11-15T10:49:19;112.90;;;41.20;;
43552;SDS011;29153;42.696;23.218;2022-11-15T10:54:27;117.65;;;41.77;;
43552;SDS011;29153;42.696;23.218;2022-11-15T10:57:15;127.60;;;44.73;;
43552;SDS011;29153;42.696;23.218;2022-11-15T10:59:45;118.90;;;43.63;;
43552;SDS011;29153;42.696;23.218;2022-11-15T11:02:31;139.43;;;48.73;;
43552;SDS011;29153;42.696;23.218;2022-11-15T11:05:02;136.18;;;47.88;;
43552;SDS011;29153;42.696;23.218;2022-11-15T11:07:32;131.27;;;44.70;;
43552;SDS011;29153;42.696;23.218;2022-11-15T11:10:17;137.03;;;46.02;;
43552;SDS011;29153;42.696;23.218;2022-11-15T11:12:41;139.40;;;47.05;;
43552;SDS011;29153;42.696;23.218;2022-11-15T11:15:10;132.27;;;50.03;;
43552;SDS011;29153;42.696;23.218;2022-11-15T11:20:33;141.07;;;49.08;;
43552;SDS011;29153;42.696;23.218;2022-11-15T11:25:51;119.20;;;44.23;;
43552;SDS011;29153;42.696;23.218;2022-11-15T11:31:16;124.58;;;47.20;;
43552;SDS011;29153;42.696;23.218;2022-11-15T11:47:46;103.80;;;41.58;;
43552;SDS011;29153;42.696;23.218;2022-11-15T11:50:27;104.55;;;39.78;;
43552;SDS011;29153;42.696;23.218;2022-11-15T11:52:57;110.03;;;41.45;;
43552;SDS011;29153;42.696;23.218;2022-11-15T11:55:51;106.43;;;42.88;;
43552;SDS011;29153;42.696;23.218;2022-11-15T11:58:28;127.22;;;48.42;;
43552;SDS011;29153;42.696;23.218;2022-11-15T12:01:14;111.05;;;41.60;;
43552;SDS011;29153;42.696;23.218;2022-11-15T12:04:32;117.87;;;41.85;;
43552;SDS011;29153;42.696;23.218;2022-11-15T12:06:24;98.17;;;38.17;;
43552;SDS011;29153;42.696;23.218;2022-11-15T12:14:08;93.45;;;36.55;;
43552;SDS011;29153;42.696;23.218;2022-11-15T12:16:44;97.47;;;35.43;;
43552;SDS011;29153;42.696;23.218;2022-11-15T12:19:12;86.17;;;34.43;;
43552;SDS011;29153;42.696;23.218;2022-11-15T12:24:33;92.53;;;35.43;;
43552;SDS011;29153;42.696;23.218;2022-11-15T12:27:04;90.40;;;38.25;;
43552;SDS011;29153;42.696;23.218;2022-11-15T12:29:48;96.10;;;40.55;;
43552;SDS011;29153;42.696;23.218;2022-11-15T12:35:00;85.00;;;33.50;;
43552;SDS011;29153;42.696;23.218;2022-11-15T12:37:44;87.45;;;37.13;;
43552;SDS011;29153;42.696;23.218;2022-11-15T12:42:41;85.90;;;35.05;;
43552;SDS011;29153;42.696;23.218;2022-11-15T12:45:32;94.10;;;36.25;;
43552;SDS011;29153;42.696;23.218;2022-11-15T12:50:57;97.22;;;40.38;;
43552;SDS011;29153;42.696;23.218;2022-11-15T12:53:27;96.87;;;38.65;;
43552;SDS011;29153;42.696;23.218;2022-11-15T12:56:09;103.78;;;38.00;;
43552;SDS011;29153;42.696;23.218;2022-11-15T13:06:50;97.27;;;39.45;;
43552;SDS011;29153;42.696;23.218;2022-11-15T13:12:03;98.67;;;39.10;;
43552;SDS011;29153;42.696;23.218;2022-11-15T13:14:48;97.37;;;37.93;;
43552;SDS011;29153;42.696;23.218;2022-11-15T13:20:14;94.58;;;36.80;;
43552;SDS011;29153;42.696;23.218;2022-11-15T13:22:41;94.58;;;35.80;;
43552;SDS011;29153;42.696;23.218;2022-11-15T13:25:18;92.82;;;39.20;;
43552;SDS011;29153;42.696;23.218;2022-11-15T13:28:10;93.95;;;38.13;;
43552;SDS011;29153;42.696;23.218;2022-11-15T13:30:38;88.62;;;35.40;;
43552;SDS011;29153;42.696;23.218;2022-11-15T13:33:08;90.60;;;35.58;;
43552;SDS011;29153;42.696;23.218;2022-11-15T13:35:38;89.07;;;35.35;;
43552;SDS011;29153;42.696;23.218;2022-11-15T13:38:11;86.50;;;34.45;;
43552;SDS011;29153;42.696;23.218;2022-11-15T13:40:46;88.82;;;33.83;;
43552;SDS011;29153;42.696;23.218;2022-11-15T13:48:35;96.80;;;37.95;;
43552;SDS011;29153;42.696;23.218;2022-11-15T13:51:04;101.18;;;41.28;;
43552;SDS011;29153;42.696;23.218;2022-11-15T13:53:33;100.60;;;44.60;;
43552;SDS011;29153;42.696;23.218;2022-11-15T13:56:10;106.32;;;43.73;;
43552;SDS011;29153;42.696;23.218;2022-11-15T13:58:37;113.72;;;44.05;;
43552;SDS011;29153;42.696;23.218;2022-11-15T14:01:05;110.40;;;41.42;;
43552;SDS011;29153;42.696;23.218;2022-11-15T14:03:39;95.70;;;38.63;;
43552;SDS011;29153;42.696;23.218;2022-11-15T14:06:08;80.70;;;34.65;;
43552;SDS011;29153;42.696;23.218;2022-11-15T14:08:57;79.35;;;30.35;;
43552;SDS011;29153;42.696;23.218;2022-11-15T14:11:20;77.85;;;32.73;;
43552;SDS011;29153;42.696;23.218;2022-11-15T14:14:08;78.20;;;31.75;;
43552;SDS011;29153;42.696;23.218;2022-11-15T14:16:37;72.30;;;28.98;;
43552;SDS011;29153;42.696;23.218;2022-11-15T14:19:09;71.40;;;28.85;;
43552;SDS011;29153;42.696;23.218;2022-11-15T14:21:37;72.58;;;30.02;;
43552;SDS011;29153;42.696;23.218;2022-11-15T14:24:16;79.07;;;32.85;;
43552;SDS011;29153;42.696;23.218;2022-11-15T14:26:45;75.85;;;28.67;;
43552;SDS011;29153;42.696;23.218;2022-11-15T14:29:23;70.05;;;28.52;;
43552;SDS011;29153;42.696;23.218;2022-11-15T14:32:58;71.12;;;28.98;;
43552;SDS011;29153;42.696;23.218;2022-11-15T14:34:42;75.65;;;27.67;;
43552;SDS011;29153;42.696;23.218;2022-11-15T14:39:50;73.10;;;31.00;;
43552;SDS011;29153;42.696;23.218;2022-11-15T14:42:19;73.12;;;32.65;;
43552;SDS011;29153;42.696;23.218;2022-11-15T14:44:47;71.50;;;28.77;;
43552;SDS011;29153;42.696;23.218;2022-11-15T14:47:15;77.05;;;29.40;;
43552;SDS011;29153;42.696;23.218;2022-11-15T14:49:43;72.27;;;28.42;;
43552;SDS011;29153;42.696;23.218;2022-11-15T14:52:27;79.12;;;32.05;;
43552;SDS011;29153;42.696;23.218;2022-11-15T14:54:58;67.15;;;26.30;;
43552;SDS011;29153;42.696;23.218;2022-11-15T14:57:28;68.37;;;27.40;;
43552;SDS011;29153;42.696;23.218;2022-11-15T14:59:56;68.62;;;28.23;;
43552;SDS011;29153;42.696;23.218;2022-11-15T15:02:24;70.62;;;32.88;;
43552;SDS011;29153;42.696;23.218;2022-11-15T15:04:53;71.95;;;31.33;;
43552;SDS011;29153;42.696;23.218;2022-11-15T15:07:23;71.95;;;28.70;;
43552;SDS011;29153;42.696;23.218;2022-11-15T15:09:50;66.22;;;26.77;;
43552;SDS011;29153;42.696;23.218;2022-11-15T15:12:19;63.45;;;27.80;;
43552;SDS011;29153;42.696;23.218;2022-11-15T15:14:49;68.10;;;26.40;;
43552;SDS011;29153;42.696;23.218;2022-11-15T15:17:17;67.72;;;27.10;;
43552;SDS011;29153;42.696;23.218;2022-11-15T15:19:45;66.92;;;26.73;;
43552;SDS011;29153;42.696;23.218;2022-11-15T15:22:14;68.22;;;26.25;;
43552;SDS011;29153;42.696;23.218;2022-11-15T15:24:47;60.90;;;25.35;;
43552;SDS011;29153;42.696;23.218;2022-11-15T15:27:15;63.48;;;25.70;;
43552;SDS011;29153;42.696;23.218;2022-11-15T15:29:43;65.78;;;27.37;;
43552;SDS011;29153;42.696;23.218;2022-11-15T15:32:10;69.87;;;27.05;;
43552;SDS011;29153;42.696;23.218;2022-11-15T15:34:39;63.58;;;24.60;;
43552;SDS011;29153;42.696;23.218;2022-11-15T15:39:55;72.80;;;29.30;;
43552;SDS011;29153;42.696;23.218;2022-11-15T15:42:22;70.55;;;26.12;;
43552;SDS011;29153;42.696;23.218;2022-11-15T15:44:50;72.37;;;29.30;;
43552;SDS011;29153;42.696;23.218;2022-11-15T15:47:19;70.90;;;26.93;;
43552;SDS011;29153;42.696;23.218;2022-11-15T15:49:48;71.25;;;28.20;;
43552;SDS011;29153;42.696;23.218;2022-11-15T15:52:16;69.85;;;29.40;;
43552;SDS011;29153;42.696;23.218;2022-11-15T15:54:44;72.97;;;25.80;;
43552;SDS011;29153;42.696;23.218;2022-11-15T15:57:12;74.82;;;29.92;;
43552;SDS011;29153;42.696;23.218;2022-11-15T15:59:40;70.22;;;29.55;;
43552;SDS011;29153;42.696;23.218;2022-11-15T16:02:17;74.00;;;27.32;;
43552;SDS011;29153;42.696;23.218;2022-11-15T16:04:40;74.60;;;27.50;;
43552;SDS011;29153;42.696;23.218;2022-11-15T16:07:12;68.28;;;28.55;;
43552;SDS011;29153;42.696;23.218;2022-11-15T16:09:38;72.22;;;29.18;;
43552;SDS011;29153;42.696;23.218;2022-11-15T16:12:23;67.50;;;28.80;;
43552;SDS011;29153;42.696;23.218;2022-11-15T16:14:51;76.00;;;29.75;;
43552;SDS011;29153;42.696;23.218;2022-11-15T16:17:19;75.00;;;31.23;;
43552;SDS011;29153;42.696;23.218;2022-11-15T16:19:48;75.52;;;32.15;;
43552;SDS011;29153;42.696;23.218;2022-11-15T16:22:16;78.10;;;32.25;;
43552;SDS011;29153;42.696;23.218;2022-11-15T16:24:43;78.17;;;30.45;;
43552;SDS011;29153;42.696;23.218;2022-11-15T16:27:12;74.45;;;29.82;;
43552;SDS011;29153;42.696;23.218;2022-11-15T16:29:41;74.25;;;29.60;;
43552;SDS011;29153;42.696;23.218;2022-11-15T16:32:09;76.55;;;32.60;;
43552;SDS011;29153;42.696;23.218;2022-11-15T16:34:37;76.57;;;31.48;;
43552;SDS011;29153;42.696;23.218;2022-11-15T16:37:05;82.97;;;33.42;;
43552;SDS011;29153;42.696;23.218;2022-11-15T16:39:34;76.62;;;28.77;;
43552;SDS011;29153;42.696;23.218;2022-11-15T16:42:02;72.75;;;30.15;;
43552;SDS011;29153;42.696;23.218;2022-11-15T16:44:31;74.45;;;31.68;;